createdAt,value
2022-08-05T00:04:56.702Z,1014.07
2022-08-05T00:34:43.261Z,1014.05
2022-08-05T01:02:02.513Z,1013.75
2022-08-05T01:30:55.937Z,1013.85
2022-08-05T01:59:27.650Z,1014.05
2022-08-05T02:28:11.191Z,1014.13
2022-08-05T02:56:46.619Z,1013.79
2022-08-05T03:26:03.552Z,1014.1
2022-08-05T03:55:51.452Z,1014.57
2022-08-05T04:22:31.807Z,1016.49
2022-08-05T04:51:31.263Z,1017.18
2022-08-05T05:20:29.471Z,1017.38
2022-08-05T05:48:56.138Z,1016.91
2022-08-05T06:17:55.601Z,1017.43
2022-08-05T06:46:38.894Z,1017.56
2022-08-05T07:15:34.237Z,1017.6
2022-08-05T07:43:50.429Z,1017.17
2022-08-05T08:12:48.967Z,1016.79
2022-08-05T08:41:01.066Z,1016.42
2022-08-05T09:09:54.996Z,1016.31
2022-08-05T09:38:46.647Z,1016.57
2022-08-05T10:08:11.373Z,1016.43
2022-08-05T10:36:00.702Z,1016.29
2022-08-05T11:04:42.630Z,1016.11
2022-08-05T11:33:21.949Z,1016.03
2022-08-05T12:02:23.694Z,1015.98
2022-08-05T12:30:36.026Z,1015.86
2022-08-05T12:59:47.142Z,1015.8
2022-08-05T13:27:51.159Z,1016
2022-08-05T13:56:28.226Z,1016.16
2022-08-05T14:25:30.491Z,1016.53
2022-08-05T14:54:27.313Z,1016.62
2022-08-05T15:22:29.775Z,1016.95
2022-08-05T15:50:57.727Z,1017.26
2022-08-05T15:58:47.528Z,1017.27
2022-08-05T16:28:00.602Z,1017.6
2022-08-05T16:56:03.256Z,1017.59
2022-08-05T17:25:09.669Z,1017.78
2022-08-05T17:53:37.229Z,1017.84
2022-08-05T18:22:11.823Z,1017.89
2022-08-05T18:50:46.534Z,1018.69
2022-08-05T19:18:58.445Z,1019.51
2022-08-05T19:47:56.171Z,1019.98
2022-08-05T20:16:27.830Z,1020.54
2022-08-05T20:44:54.227Z,1021.01
2022-08-05T21:13:48.619Z,1021.24
2022-08-05T21:42:02.628Z,1021.33
2022-08-05T22:10:28.268Z,1021.79
2022-08-05T22:38:54.422Z,1022.05
2022-08-05T23:07:51.082Z,1022.04
2022-08-05T23:36:15.847Z,1022.21
